الصفحة الرئيسية
METAR-TAF:

METAR-TAF

مطار :

مطار تونس قرطاج الدولي

تونس, تونس

دائرة عرض: 36-50N, خط طول: 010-14E, ارتفاع: 3 متر

مراقبة الطقس الحالي

تاريخ ووقت الإصدار 31 دقيقة قبل الساعة 11:30UTC
ريح 13 عقدة من الجنوب/الجنوب الشرقي
درجة الحرارة 33°درجة مئوية
الرطوبة 24%
ضغط 1014 hPa
الرؤية 10 كم أو أكثر
غيوم قليلة على ارتفاع 2600 قدم

METAR: DTTA 271130Z 15013KT 9999 FEW026 33/10 Q1014 NOSIG

زمن: 13:01 (12:01 UTC)

توقعات

تاريخ ووقت الإصدار 45 دقيقة قبل الساعة 11:16UTC
التوقعات صالحة من27 الساعة 12 UTC إلى 28 الساعة 12 UTC
ريح 12 عقدة من الجنوب/الجنوب الشرقي
الرؤية 10 كم أو أكثر
غيوم قليلة على ارتفاع 2600 قدم

TAF: DTTA 271116Z 2712/2812 16012KT 9999 FEW026

أرصاد الطقس والتوقعات من أكثر من 4000 مطار (تقارير الطقس للمطار METAR والتنبؤ بالطقس بالمطارTAF).

المحطات المتاحة هي النقط الصفراء والحمراء على الخريطة.

حرك المؤشر فوق النقطة لمعرفة اسم المحطة.

ثم انقر لمعرفة أرصاد وتوقعات الطقس.

لتغيير الخارطة: اضغط على الأزرار الخضراء مع رمز الصليب الأسود للتكبير. على الزر الأخضر مع شرطة للتصغير، أو على الأسهم الخضراء للخرائط المجاورة.


METAR-TAF: